Time;durP1;ratioP1;P1;durP2;ratioP2;P2;SDS_P1;SDS_P2;PMS_P1;PMS_P2;Temp;Humidity;BMP_temperature;BMP_pressure;BME280_temperature;BME280_humidity;BME280_pressure;Samples;Min_cycle;Max_cycle;Signal;HPM_P1;HPM_P2
2022/04/27 00:01:31;;;;;;;4.80;2.53;;;;;;;6.77;52.03;92469.63;4810252;29;20078;-92
2022/04/27 00:04:06;;;;;;;6.47;2.60;;;;;;;7.01;52.36;92508.88;4810458;29;20038;-91
2022/04/27 00:06:44;;;;;;;6.85;2.58;;;;;;;6.66;53.07;92462.88;4782281;29;20046;-92
2022/04/27 00:09:22;;;;;;;8.68;2.50;;;;;;;6.67;53.24;92464.44;4818610;29;20114;-92
2022/04/27 00:11:48;;;;;;;7.38;3.08;;;;;;;6.73;53.53;92478.22;4805905;29;20135;-91
2022/04/27 00:14:50;;;;;;;6.22;2.60;;;;;;;6.82;53.96;92502.66;4784260;29;20051;-92
2022/04/27 00:17:21;;;;;;;8.13;2.50;;;;;;;6.80;53.91;92505.53;4811416;29;20042;-92
2022/04/27 00:19:55;;;;;;;7.60;2.60;;;;;;;6.68;52.54;92479.00;4810982;29;20069;-91
2022/04/27 00:22:54;;;;;;;7.53;2.60;;;;;;;6.88;52.70;92512.03;4776581;29;20049;-92
2022/04/27 00:25:28;;;;;;;5.30;2.50;;;;;;;6.96;53.39;92534.13;4795576;29;20475;-92
2022/04/27 00:27:56;;;;;;;6.82;2.53;;;;;;;6.60;52.59;92474.34;4807232;29;20045;-92
2022/04/27 00:30:26;;;;;;;6.93;2.60;;;;;;;6.78;53.21;92506.84;4813486;29;20026;-91
2022/04/27 00:33:00;;;;;;;8.38;2.40;;;;;;;6.56;52.88;92473.31;4797905;29;20046;-93
2022/04/27 00:35:35;;;;;;;7.57;2.67;;;;;;;6.68;51.67;92486.81;4795838;29;20046;-91
2022/04/27 00:38:22;;;;;;;3.80;2.17;;;;;;;6.72;52.27;92495.66;4808403;29;20042;-91
2022/04/27 00:40:57;;;;;;;5.43;2.13;;;;;;;6.68;53.01;92492.00;4809134;29;20392;-92
2022/04/27 00:43:42;;;;;;;5.40;2.58;;;;;;;6.41;53.21;92456.66;4795139;29;20099;-91
2022/04/27 00:46:13;;;;;;;5.85;2.85;;;;;;;6.56;52.82;92481.09;4797199;29;20085;-92
2022/04/27 00:48:40;;;;;;;4.90;2.20;;;;;;;6.78;53.19;92517.25;4794092;29;20436;-92
2022/04/27 00:51:10;;;;;;;3.92;2.33;;;;;;;6.65;53.86;92508.16;4809549;29;20194;-92
2022/04/27 00:53:40;;;;;;;5.50;2.65;;;;;;;6.60;53.74;92505.56;4795451;29;20106;-90
2022/04/27 00:56:18;;;;;;;4.35;2.42;;;;;;;6.33;54.11;92470.19;4784022;30;20075;-91
2022/04/27 00:58:48;;;;;;;5.80;2.33;;;;;;;6.54;54.52;92506.59;4782028;29;20039;-93
2022/04/27 01:01:19;;;;;;;4.88;2.45;;;;;;;6.49;54.41;92509.19;4792945;29;20145;-92
2022/04/27 01:03:45;;;;;;;6.68;3.03;;;;;;;6.28;54.57;92483.16;4808918;29;20125;-92
2022/04/27 01:06:15;;;;;;;7.53;2.55;;;;;;;6.57;53.02;92526.88;4795023;29;20051;-92
2022/04/27 01:08:49;;;;;;;5.53;2.45;;;;;;;6.22;53.98;92473.81;4805808;29;20408;-91
2022/04/27 01:11:22;;;;;;;5.35;2.45;;;;;;;6.33;54.29;92485.00;4790818;29;20137;-91
2022/04/27 01:13:53;;;;;;;5.85;2.53;;;;;;;6.16;54.93;92469.66;4780635;29;20054;-91
2022/04/27 01:16:23;;;;;;;10.20;2.55;;;;;;;6.20;55.78;92488.88;4783984;29;20092;-91
2022/04/27 01:19:04;;;;;;;5.20;2.60;;;;;;;6.00;56.41;92466.25;4812575;29;20048;-91
2022/04/27 01:21:40;;;;;;;5.35;2.67;;;;;;;6.00;56.81;92485.22;4806839;29;20155;-91
2022/04/27 01:24:24;;;;;;;6.65;2.60;;;;;;;5.89;56.36;92481.00;4766368;29;20082;-92
2022/04/27 01:27:02;;;;;;;4.45;2.10;;;;;;;6.05;55.83;92495.63;4812201;29;20057;-92
2022/04/27 01:29:45;;;;;;;6.68;2.50;;;;;;;6.16;56.62;92503.44;4790844;29;20575;-91
2022/04/27 01:32:21;;;;;;;5.32;2.25;;;;;;;5.97;55.62;92472.75;4801956;29;20027;-93
2022/04/27 01:34:47;;;;;;;4.97;2.33;;;;;;;6.08;55.97;92504.75;4811192;29;20039;-93
2022/04/27 01:40:11;;;;;;;6.57;2.30;;;;;;;5.76;56.33;92476.31;4832383;29;20101;-91
2022/04/27 01:42:45;;;;;;;4.47;2.35;;;;;;;5.62;57.18;92463.78;4815981;29;20054;-91
2022/04/27 01:45:11;;;;;;;5.82;2.03;;;;;;;5.78;57.90;92495.00;4785976;29;20049;-91
2022/04/27 01:47:41;;;;;;;4.15;2.15;;;;;;;5.50;58.45;92471.03;4793139;29;20094;-91
2022/04/27 01:50:19;;;;;;;5.28;2.10;;;;;;;5.75;58.02;92513.72;4795184;29;20046;-92
2022/04/27 01:55:37;;;;;;;4.32;2.28;;;;;;;5.61;57.74;92508.22;4797499;29;20054;-92
2022/04/27 01:58:07;;;;;;;4.28;2.40;;;;;;;5.37;56.65;92466.31;4776315;29;20042;-91
2022/04/27 02:00:41;;;;;;;4.35;2.20;;;;;;;5.70;56.08;92511.88;4793348;29;20132;-89
2022/04/27 02:03:12;;;;;;;4.00;2.05;;;;;;;5.52;56.56;92479.34;4808589;29;20046;-90
2022/04/27 02:05:41;;;;;;;5.15;2.10;;;;;;;5.73;56.35;92503.56;4779470;29;20080;-90
2022/04/27 02:08:12;;;;;;;3.50;2.00;;;;;;;5.51;56.57;92472.59;4793692;29;20071;-90
2022/04/27 02:10:52;;;;;;;5.32;2.20;;;;;;;5.63;56.92;92493.94;4781713;29;20138;-91
2022/04/27 02:13:45;;;;;;;6.38;2.40;;;;;;;5.44;56.81;92469.44;4777593;29;20046;-91
2022/04/27 02:16:17;;;;;;;5.60;2.10;;;;;;;5.69;57.02;92512.13;4794707;29;20506;-91
2022/04/27 02:18:48;;;;;;;6.57;2.30;;;;;;;5.69;57.79;92517.31;4786645;29;20066;-91
2022/04/27 02:24:14;;;;;;;4.70;2.00;;;;;;;5.37;57.57;92480.06;4804806;29;20035;-90
2022/04/27 02:26:44;;;;;;;6.22;2.20;;;;;;;5.42;57.25;92476.72;4804793;29;20046;-90
2022/04/27 02:29:15;;;;;;;4.43;2.20;;;;;;;5.39;56.85;92477.22;4820824;29;20039;-92
2022/04/27 02:31:46;;;;;;;8.25;2.20;;;;;;;5.45;55.79;92476.22;4794261;29;20566;-92
2022/04/27 02:34:17;;;;;;;5.47;2.10;;;;;;;5.74;56.17;92519.94;4806956;29;20047;-91
2022/04/27 02:36:51;;;;;;;3.67;2.00;;;;;;;5.91;56.28;92546.50;4784921;29;20046;-92
2022/04/27 02:39:26;;;;;;;4.15;2.20;;;;;;;5.56;56.76;92498.59;4805562;29;20042;-92
2022/04/27 02:41:52;;;;;;;4.05;2.17;;;;;;;5.55;55.44;92486.63;4792498;29;20066;-92
2022/04/27 02:44:22;;;;;;;4.80;2.30;;;;;;;5.59;56.16;92492.88;4795030;29;20463;-91
2022/04/27 02:46:55;;;;;;;4.72;2.28;;;;;;;5.58;56.19;92501.72;4790468;29;20042;-91
2022/04/27 02:52:19;;;;;;;;;;;;;;;6.10;54.10;92543.44;4811399;29;20456;-90
2022/04/27 02:55:17;;;;;;;5.75;2.20;;;;;;;5.92;54.50;92527.28;4798745;29;19946;-92
2022/04/27 02:57:53;;;;;;;6.43;1.98;;;;;;;5.88;56.24;92530.63;4796833;29;20042;-93
2022/04/27 03:00:39;;;;;;;3.80;2.05;;;;;;;5.69;56.85;92518.09;4779912;29;20066;-92
2022/04/27 03:03:12;;;;;;;4.82;2.20;;;;;;;5.41;57.06;92494.13;4759210;30;20638;-91
2022/04/27 03:05:51;;;;;;;4.07;2.00;;;;;;;5.33;56.84;92491.22;4763791;29;20471;-92
2022/04/27 03:08:23;;;;;;;9.75;4.35;;;;;;;5.44;58.15;92518.78;4777277;29;20073;-90
2022/04/27 03:11:03;;;;;;;8.43;3.90;;;;;;;5.36;57.78;92516.69;4785175;29;20054;-90
2022/04/27 03:13:51;;;;;;;8.88;3.50;;;;;;;5.17;57.50;92498.94;4771202;30;20413;-91
2022/04/27 03:16:29;;;;;;;6.70;2.95;;;;;;;5.09;58.59;92489.03;4782509;29;20528;-90
2022/04/27 03:19:00;;;;;;;4.60;2.13;;;;;;;4.98;59.19;92490.78;4778609;29;20138;-92
2022/04/27 03:21:36;;;;;;;6.28;2.30;;;;;;;5.03;59.20;92508.19;4775066;30;20058;-91
2022/04/27 03:24:04;;;;;;;4.53;2.20;;;;;;;5.00;59.33;92512.09;4775874;30;20044;-90
2022/04/27 03:26:37;;;;;;;5.95;2.28;;;;;;;4.90;59.86;92511.22;4778484;29;20092;-90
2022/04/27 03:29:24;;;;;;;4.30;2.10;;;;;;;5.01;60.65;92538.81;4777949;29;20474;-91
2022/04/27 03:31:57;;;;;;;4.00;1.83;;;;;;;4.76;60.38;92510.88;4765441;29;20046;-90
2022/04/27 03:34:28;;;;;;;4.35;2.13;;;;;;;4.68;60.50;92514.72;4778150;29;20408;-90
2022/04/27 03:36:58;;;;;;;4.28;2.10;;;;;;;4.87;59.91;92540.28;4778052;29;20055;-91
2022/04/27 03:39:26;;;;;;;3.97;2.25;;;;;;;4.78;60.08;92538.13;4775779;29;20042;-91
2022/04/27 03:42:04;;;;;;;;;;;;;;;;;;;;;
2022/04/27 03:44:36;;;;;;;5.20;2.22;;;;;;;4.55;60.62;92508.16;4790628;29;20047;-90
2022/04/27 03:47:08;;;;;;;6.10;2.40;;;;;;;4.53;60.79;92506.84;4776770;29;20034;-91
2022/04/27 03:49:41;;;;;;;4.20;2.35;;;;;;;4.55;61.02;92520.34;4788827;29;20054;-91
2022/04/27 03:52:09;;;;;;;3.80;2.00;;;;;;;4.80;61.85;92549.03;4788599;30;20053;-91
2022/04/27 03:54:40;;;;;;;3.95;2.10;;;;;;;5.04;58.71;92574.63;4759509;29;20050;-92
2022/04/27 03:57:18;;;;;;;3.60;1.90;;;;;;;4.87;58.90;92532.50;4790356;29;20035;-92
2022/04/27 03:59:52;;;;;;;3.90;2.10;;;;;;;4.90;56.47;92516.44;4788025;29;20046;-90
2022/04/27 04:02:20;;;;;;;3.58;1.73;;;;;;;5.32;53.00;92520.81;4798306;29;20526;-91
2022/04/27 04:05:19;;;;;;;4.68;2.28;;;;;;;5.72;54.49;92571.34;4788549;29;20046;-91
2022/04/27 04:07:45;;;;;;;3.35;1.85;;;;;;;5.62;56.23;92559.09;4800842;29;20046;-91
2022/04/27 04:10:14;;;;;;;4.95;2.10;;;;;;;5.27;56.71;92525.97;4807338;29;20047;-91
2022/04/27 04:12:57;;;;;;;4.32;2.15;;;;;;;5.13;56.74;92516.03;4808480;29;20041;-91
2022/04/27 04:16:06;;;;;;;6.00;2.03;;;;;;;5.07;57.32;92518.88;4803522;29;20135;-90
2022/04/27 04:18:48;;;;;;;4.32;2.03;;;;;;;5.13;58.21;92546.41;4790809;29;20045;-90
2022/04/27 04:21:29;;;;;;;7.28;2.05;;;;;;;5.13;57.93;92556.78;4780033;30;20052;-90
2022/04/27 04:24:16;;;;;;;;;;;;;;;;;;;;;
2022/04/27 04:29:33;;;;;;;5.18;2.15;;;;;;;5.16;58.41;92587.44;4804721;29;20054;-90
2022/04/27 04:32:02;;;;;;;3.85;2.05;;;;;;;4.94;57.86;92544.22;4775395;29;20081;-91
2022/04/27 04:35:02;;;;;;;4.30;2.10;;;;;;;5.33;57.75;92601.00;4802673;29;20047;-89
2022/04/27 04:37:31;;;;;;;4.55;2.15;;;;;;;4.94;57.89;92544.22;4759835;29;20104;-88
2022/04/27 04:40:13;;;;;;;;;;;;;;;;;;;;;
2022/04/27 04:42:42;;;;;;;3.63;2.00;;;;;;;5.42;55.73;92593.53;4779069;29;20043;-87
2022/04/27 04:45:10;;;;;;;4.85;2.15;;;;;;;5.67;55.09;92612.88;4758706;29;20092;-90
2022/04/27 04:48:02;;;;;;;3.67;2.00;;;;;;;5.55;54.85;92585.31;4783283;29;20039;-88
2022/04/27 04:50:58;;;;;;;3.58;1.90;;;;;;;5.71;54.21;92580.97;4774103;29;20057;-88
2022/04/27 04:53:48;;;;;;;4.38;2.10;;;;;;;5.71;55.61;92577.59;4796963;29;20086;-91
2022/04/27 04:56:26;;;;;;;5.40;2.35;;;;;;;5.94;55.31;92608.34;4774882;29;20080;-90
2022/04/27 04:59:14;;;;;;;3.45;1.90;;;;;;;5.80;54.68;92570.88;4770819;30;20467;-89
2022/04/27 05:02:10;;;;;;;4.22;2.00;;;;;;;5.89;55.37;92582.34;4789726;29;20042;-88
2022/04/27 05:05:02;;;;;;;4.53;2.05;;;;;;;6.03;55.65;92595.66;4788070;29;20051;-88
2022/04/27 05:07:54;;;;;;;5.65;2.03;;;;;;;6.23;55.93;92621.72;4783934;29;20063;-89
2022/04/27 05:10:47;;;;;;;3.40;2.00;;;;;;;5.98;55.96;92580.84;4804096;29;20122;-90
2022/04/27 05:13:49;;;;;;;5.18;2.00;;;;;;;6.21;56.20;92599.63;4815618;29;20066;-88
2022/04/27 05:17:03;;;;;;;3.22;1.77;;;;;;;6.21;55.55;92595.22;4802185;29;20069;-88
2022/04/27 05:19:52;;;;;;;6.03;2.10;;;;;;;6.20;55.01;92585.06;4795027;30;20504;-89
2022/04/27 05:22:40;;;;;;;4.07;1.98;;;;;;;6.46;55.12;92615.28;4761636;30;20134;-87
2022/04/27 05:25:20;;;;;;;4.13;2.00;;;;;;;6.29;55.50;92562.72;4784063;29;20043;-87
2022/04/27 05:28:09;;;;;;;3.47;1.83;;;;;;;6.57;55.15;92591.88;4779304;29;20058;-88
2022/04/27 05:34:22;;;;;;;;;;;;;;;;;;;;;
2022/04/27 05:36:58;;;;;;;6.07;2.20;;;;;;;7.18;60.88;92594.53;4787649;29;20039;-88
2022/04/27 05:39:54;;;;;;;7.97;2.17;;;;;;;7.44;61.99;92610.09;4794675;29;20050;-87
2022/04/27 05:42:28;;;;;;;5.20;2.50;;;;;;;7.63;62.98;92616.34;4822630;29;20043;-87
2022/04/27 05:45:16;;;;;;;4.63;2.25;;;;;;;7.71;62.12;92615.78;4792369;29;20075;-90
2022/04/27 05:47:53;;;;;;;9.35;2.70;;;;;;;7.83;61.36;92625.13;4805829;29;20139;-86
2022/04/27 05:50:38;;;;;;;5.05;2.33;;;;;;;7.92;60.77;92628.75;4792732;29;20057;-88
2022/04/27 05:53:17;;;;;;;7.72;2.30;;;;;;;7.98;59.98;92625.09;4791479;29;20076;-88
2022/04/27 05:56:09;;;;;;;4.25;2.28;;;;;;;8.43;63.33;92648.66;4818679;29;20547;-87
2022/04/27 05:58:42;;;;;;;4.47;2.42;;;;;;;8.48;62.59;92636.38;4773340;30;20059;-87
2022/04/27 06:01:23;;;;;;;12.40;2.55;;;;;;;8.47;62.06;92613.16;4802558;29;20075;-87
2022/04/27 06:04:03;;;;;;;7.43;2.30;;;;;;;8.70;60.32;92628.16;4770417;29;20046;-87
2022/04/27 06:06:33;;;;;;;7.25;2.30;;;;;;;8.83;61.46;92620.78;4772911;29;20051;-89
2022/04/27 06:09:05;;;;;;;4.80;2.80;;;;;;;9.09;60.71;92629.19;4784314;29;20047;-88
2022/04/27 06:12:08;;;;;;;7.03;2.70;;;;;;;11.25;54.09;92625.69;4782472;29;20568;-86
2022/04/27 06:14:45;;;;;;;8.75;2.55;;;;;;;15.00;44.13;92621.50;4791958;29;20512;-88
2022/04/27 06:17:22;;;;;;;4.38;2.28;;;;;;;16.55;39.21;92662.94;4776993;29;20566;-88
2022/04/27 06:19:56;;;;;;;8.98;2.90;;;;;;;18.82;35.45;92611.38;4759247;30;20095;-88
2022/04/27 06:22:24;;;;;;;5.47;2.80;;;;;;;20.96;32.31;92632.13;4757930;30;20060;-87
2022/04/27 06:24:55;;;;;;;4.72;2.58;;;;;;;22.76;29.89;92638.13;4775652;29;20045;-89
2022/04/27 06:27:52;;;;;;;4.43;2.40;;;;;;;24.47;28.17;92665.44;4770067;29;20099;-89
2022/04/27 06:30:18;;;;;;;6.68;2.72;;;;;;;24.51;25.74;92645.63;4776484;30;20050;-89
2022/04/27 06:32:48;;;;;;;9.10;3.00;;;;;;;24.68;25.73;92643.50;4772944;30;20043;-90
2022/04/27 06:35:26;;;;;;;6.45;3.38;;;;;;;24.10;26.46;92648.28;4781489;29;20104;-89
2022/04/27 06:38:02;;;;;;;8.73;4.15;;;;;;;23.31;27.35;92632.47;4775978;29;20031;-89
2022/04/27 06:40:40;;;;;;;12.50;3.67;;;;;;;23.12;27.42;92628.75;4789348;29;20035;-89
2022/04/27 06:43:11;;;;;;;10.80;3.53;;;;;;;21.91;29.20;92633.66;4787120;29;20049;-89
2022/04/27 06:46:14;;;;;;;9.37;3.67;;;;;;;23.00;27.72;92627.09;4770135;29;20416;-88
2022/04/27 06:49:08;;;;;;;7.72;3.67;;;;;;;23.10;27.43;92632.94;4775065;30;20066;-88
2022/04/27 06:51:55;;;;;;;9.85;3.50;;;;;;;22.51;27.87;92657.19;4791132;29;20073;-88
2022/04/27 06:54:40;;;;;;;7.50;4.07;;;;;;;20.82;31.73;92661.06;4774882;30;20070;-88
2022/04/27 06:57:28;;;;;;;8.68;3.63;;;;;;;18.38;34.24;92637.69;4801584;29;20043;-88
2022/04/27 07:00:02;;;;;;;10.75;3.58;;;;;;;16.48;39.12;92670.59;4776552;29;20043;-88
2022/04/27 07:02:30;;;;;;;11.02;3.90;;;;;;;14.70;43.06;92666.13;4805919;29;20413;-88
2022/04/27 07:05:06;;;;;;;10.00;4.10;;;;;;;14.29;46.04;92669.81;4776001;29;20087;-88
2022/04/27 07:07:35;;;;;;;7.28;3.67;;;;;;;13.81;45.37;92633.69;4775193;29;20070;-88
2022/04/27 07:10:03;;;;;;;9.13;3.88;;;;;;;13.73;47.62;92634.41;4775669;29;20039;-88
2022/04/27 07:12:29;;;;;;;8.55;3.67;;;;;;;13.35;47.60;92637.41;4774727;29;20129;-87
2022/04/27 07:14:57;;;;;;;12.43;3.50;;;;;;;13.47;47.92;92640.28;4790420;29;20062;-89
2022/04/27 07:17:37;;;;;;;7.90;3.40;;;;;;;13.37;50.69;92679.97;4772061;30;20707;-90
2022/04/27 07:20:03;;;;;;;7.32;3.85;;;;;;;13.16;51.44;92653.34;4757474;30;20558;-88
2022/04/27 07:22:29;;;;;;;11.55;4.00;;;;;;;12.85;51.41;92684.75;4769125;30;20043;-89
2022/04/27 07:24:55;;;;;;;10.90;4.07;;;;;;;12.84;51.62;92680.59;4790006;29;20473;-88
2022/04/27 07:27:31;;;;;;;9.65;4.20;;;;;;;12.69;52.76;92705.31;4790384;29;20055;-88
2022/04/27 07:30:01;;;;;;;7.75;3.80;;;;;;;12.63;54.56;92707.25;4747127;29;20070;-90
2022/04/27 07:32:30;;;;;;;13.82;4.20;;;;;;;12.47;53.88;92670.03;4776770;29;20492;-90
2022/04/27 07:34:57;;;;;;;8.75;3.90;;;;;;;12.83;54.67;92685.03;4807524;29;20039;-88
2022/04/27 07:37:30;;;;;;;8.85;3.67;;;;;;;12.23;54.50;92654.47;4775967;29;20042;-87
2022/04/27 07:39:58;;;;;;;7.22;4.03;;;;;;;11.91;55.99;92686.81;4791885;29;20050;-88
2022/04/27 07:42:24;;;;;;;7.68;3.90;;;;;;;12.59;55.32;92719.41;4790843;29;20064;-88
2022/04/27 07:45:00;;;;;;;7.93;3.55;;;;;;;11.98;55.33;92660.97;4793661;29;20047;-88
2022/04/27 07:47:28;;;;;;;10.80;3.78;;;;;;;12.22;54.38;92650.28;4767656;29;20095;-88
2022/04/27 07:49:56;;;;;;;6.97;3.42;;;;;;;12.13;54.38;92672.25;4793068;29;20484;-87
2022/04/27 07:52:24;;;;;;;8.90;3.58;;;;;;;12.36;55.85;92715.13;4792931;29;20043;-89
2022/04/27 07:54:49;;;;;;;9.23;3.08;;;;;;;12.32;55.18;92686.06;4778050;29;20754;-89
2022/04/27 07:57:20;;;;;;;10.55;3.38;;;;;;;12.54;53.38;92660.97;4778390;29;20038;-88
2022/04/27 07:59:45;;;;;;;10.07;3.33;;;;;;;12.64;52.90;92676.53;4778309;29;20072;-88
2022/04/27 08:02:11;;;;;;;7.97;3.58;;;;;;;12.64;51.47;92679.91;4790666;29;20146;-88
2022/04/27 08:04:39;;;;;;;5.65;3.00;;;;;;;12.58;51.38;92678.44;4810935;29;20912;-87
2022/04/27 08:07:07;;;;;;;7.25;3.55;;;;;;;12.68;50.90;92693.25;4810033;29;20034;-88
2022/04/27 08:09:32;;;;;;;8.25;3.42;;;;;;;12.55;50.93;92665.16;4792622;29;20527;-88
2022/04/27 08:12:00;;;;;;;8.63;3.22;;;;;;;13.44;51.40;92724.25;4801213;29;20043;-88
2022/04/27 08:14:31;;;;;;;9.75;3.67;;;;;;;12.97;52.40;92674.53;4800132;29;20484;-88
2022/04/27 08:17:01;;;;;;;6.57;3.60;;;;;;;12.88;51.83;92707.81;4778601;29;20039;-88
2022/04/27 08:19:27;;;;;;;5.70;2.85;;;;;;;12.73;51.45;92684.50;4800560;29;20046;-88
2022/04/27 08:21:56;;;;;;;8.90;3.20;;;;;;;12.62;51.48;92713.56;4803389;29;20097;-88
2022/04/27 08:24:27;;;;;;;5.78;2.92;;;;;;;12.72;50.91;92738.84;4817151;29;20051;-88
2022/04/27 08:26:53;;;;;;;6.38;2.80;;;;;;;12.61;52.09;92712.03;4781460;29;20045;-88
2022/04/27 08:29:22;;;;;;;6.20;3.10;;;;;;;13.38;49.75;92743.88;4809177;29;20038;-88
2022/04/27 08:31:52;;;;;;;5.50;2.85;;;;;;;13.22;48.33;92725.00;4811100;29;20042;-90
2022/04/27 08:34:28;;;;;;;7.30;2.70;;;;;;;13.13;48.82;92686.25;4794441;29;20055;-89
2022/04/27 08:36:54;;;;;;;4.63;2.67;;;;;;;13.58;47.73;92721.56;4815270;29;20045;-88
2022/04/27 08:39:24;;;;;;;5.45;2.67;;;;;;;13.63;46.21;92708.31;4798921;29;20098;-88
2022/04/27 08:41:52;;;;;;;7.30;2.80;;;;;;;13.52;47.02;92697.25;4795043;29;20130;-88
2022/04/27 08:44:18;;;;;;;5.53;2.60;;;;;;;13.82;47.12;92732.56;4787437;29;20052;-94
2022/04/27 08:46:47;;;;;;;8.35;3.00;;;;;;;13.75;47.78;92726.97;4814551;29;20048;-88
2022/04/27 08:49:15;;;;;;;5.05;2.75;;;;;;;14.13;47.11;92724.72;4821068;29;20082;-90
2022/04/27 08:51:41;;;;;;;6.35;2.67;;;;;;;13.61;47.42;92728.88;4818309;29;20067;-90
2022/04/27 08:54:06;;;;;;;6.07;2.70;;;;;;;13.75;48.86;92733.00;4818420;29;20038;-89
2022/04/27 08:56:35;;;;;;;9.07;2.80;;;;;;;13.39;49.79;92701.47;4829535;29;20039;-89
2022/04/27 08:59:08;;;;;;;4.53;2.60;;;;;;;13.24;51.35;92697.31;4826399;29;20183;-89
2022/04/27 09:01:44;;;;;;;5.60;2.80;;;;;;;13.71;51.43;92728.63;4797395;29;20515;-89
2022/04/27 09:04:15;;;;;;;5.82;2.80;;;;;;;13.28;52.03;92700.94;4791949;29;20059;-88
2022/04/27 09:06:44;;;;;;;5.85;3.00;;;;;;;13.78;52.56;92731.63;4809605;29;20042;-89
2022/04/27 09:09:32;;;;;;;6.32;2.78;;;;;;;14.57;49.37;92753.94;4809917;29;20045;-89
2022/04/27 09:12:07;;;;;;;;;;;;;;;;;;;;;
2022/04/27 09:14:38;;;;;;;4.20;2.42;;;;;;;13.53;49.63;92733.78;4809473;29;20058;-89
2022/04/27 09:22:44;;;;;;;4.28;2.60;;;;;;;13.88;47.56;92744.53;4825845;29;20050;-89
2022/04/27 09:25:09;;;;;;;;;;;;;;;13.90;48.24;92757.41;4794931;29;20065;-90
2022/04/27 09:27:38;;;;;;;6.80;2.63;;;;;;;14.01;46.31;92747.41;4787914;29;20410;-89
2022/04/27 09:30:14;;;;;;;4.57;2.53;;;;;;;14.17;46.33;92698.56;4793184;29;20190;-91
2022/04/27 09:32:57;;;;;;;5.43;2.47;;;;;;;14.37;45.68;92692.78;4792661;29;20060;-91
2022/04/27 09:35:36;;;;;;;6.07;2.35;;;;;;;14.94;43.25;92744.75;4824055;29;20090;-92
2022/04/27 09:38:21;;;;;;;4.40;2.45;;;;;;;14.70;43.78;92762.81;4808303;29;20046;-90
2022/04/27 09:40:56;;;;;;;5.85;2.70;;;;;;;13.71;43.71;92692.59;4791490;29;20042;-88
2022/04/27 09:43:48;;;;;;;5.50;2.42;;;;;;;14.65;44.30;92741.88;4805317;29;20050;-90
2022/04/27 09:46:29;;;;;;;7.40;2.38;;;;;;;14.44;43.56;92710.78;4796053;29;20049;-89
2022/04/27 09:49:11;;;;;;;5.25;2.25;;;;;;;14.56;41.35;92750.50;4777785;29;20152;-89
2022/04/27 09:51:48;;;;;;;5.93;2.63;;;;;;;14.47;42.71;92704.88;4813445;29;20030;-90
2022/04/27 09:54:21;;;;;;;6.05;2.70;;;;;;;15.20;43.60;92722.94;4807770;29;20035;-90
2022/04/27 09:56:56;;;;;;;5.38;2.20;;;;;;;15.59;39.04;92708.06;4789711;29;20042;-90
2022/04/27 09:59:31;;;;;;;4.70;2.60;;;;;;;16.01;37.08;92727.63;4788753;29;20070;-91
2022/04/27 10:02:05;;;;;;;5.10;2.67;;;;;;;15.71;37.51;92739.91;4804265;29;20061;-90
2022/04/27 10:04:43;;;;;;;4.88;2.50;;;;;;;15.87;39.51;92734.91;4805329;29;20034;-92
2022/04/27 10:07:13;;;;;;;5.45;2.55;;;;;;;15.81;38.28;92693.94;4820416;29;20038;-89
2022/04/27 10:09:45;;;;;;;5.57;2.70;;;;;;;15.65;38.85;92742.97;4825642;29;20057;-89
2022/04/27 10:12:30;;;;;;;4.88;2.55;;;;;;;15.67;37.93;92703.84;4825106;29;20045;-89
2022/04/27 10:15:04;;;;;;;7.13;2.63;;;;;;;15.81;38.91;92710.56;4781480;29;20073;-87
2022/04/27 10:17:31;;;;;;;6.45;2.40;;;;;;;16.36;39.04;92750.53;4808320;29;20043;-88
2022/04/27 10:20:26;;;;;;;5.10;2.78;;;;;;;16.71;38.08;92753.84;4799837;29;20039;-90
2022/04/27 10:22:52;;;;;;;5.80;2.72;;;;;;;16.20;36.49;92758.19;4793314;29;20042;-90
2022/04/27 10:25:38;;;;;;;4.13;2.35;;;;;;;16.62;37.93;92750.44;4803381;29;20104;-91
2022/04/27 10:28:23;;;;;;;13.40;2.60;;;;;;;16.32;38.17;92702.81;4778763;29;20498;-90
2022/04/27 10:30:51;;;;;;;4.20;2.10;;;;;;;16.21;36.51;92725.38;4792440;29;20054;-90
2022/04/27 10:33:47;;;;;;;5.03;1.92;;;;;;;16.67;37.96;92750.28;4792330;29;20034;-90
2022/04/27 10:36:28;;;;;;;6.75;2.45;;;;;;;16.39;36.46;92734.84;4793898;29;20039;-90
2022/04/27 10:39:14;;;;;;;4.40;1.90;;;;;;;15.96;36.34;92746.25;4773550;29;20095;-90
2022/04/27 10:41:47;;;;;;;5.15;2.25;;;;;;;15.58;38.95;92728.41;4801991;29;20050;-90
2022/04/27 10:44:38;;;;;;;3.85;2.10;;;;;;;15.64;38.22;92701.84;4784334;29;20472;-90
2022/04/27 10:47:18;;;;;;;6.47;2.47;;;;;;;15.96;38.50;92705.88;4807688;29;20058;-90
2022/04/27 10:50:28;;;;;;;;;;;;;;;;;;;;;
2022/04/27 10:53:19;;;;;;;6.03;2.30;;;;;;;15.22;36.84;92697.06;4792675;29;20119;-89
2022/04/27 10:55:50;;;;;;;3.50;2.20;;;;;;;15.29;38.07;92696.56;4793090;29;20257;-90
2022/04/27 10:58:32;;;;;;;7.57;2.25;;;;;;;16.18;36.88;92745.28;4808784;29;20064;-89
2022/04/27 11:01:19;;;;;;;4.75;2.30;;;;;;;15.97;37.89;92747.03;4781213;29;20054;-89
2022/04/27 11:03:57;;;;;;;6.15;2.22;;;;;;;15.78;36.59;92707.75;4793125;29;20488;-89
2022/04/27 11:06:24;;;;;;;7.18;2.00;;;;;;;15.94;37.04;92745.81;4825394;29;20042;-89
2022/04/27 11:09:14;;;;;;;5.72;2.05;;;;;;;15.75;36.58;92758.53;4815126;29;20045;-89
2022/04/27 11:12:09;;;;;;;6.28;2.53;;;;;;;15.94;36.27;92740.53;4814532;29;20030;-88
2022/04/27 11:14:38;;;;;;;4.85;2.40;;;;;;;16.58;36.91;92741.59;4795726;29;20483;-89
2022/04/27 11:17:05;;;;;;;7.05;2.60;;;;;;;16.15;38.04;92698.38;4808144;29;20483;-89
2022/04/27 11:19:36;;;;;;;5.13;2.78;;;;;;;16.00;37.12;92717.34;4814744;29;20034;-89
2022/04/27 11:22:15;;;;;;;6.57;2.17;;;;;;;16.29;38.18;92742.31;4796259;29;20545;-91
2022/04/27 11:24:45;;;;;;;5.18;2.65;;;;;;;15.72;38.62;92695.81;4814805;29;20134;-90
2022/04/27 11:27:12;;;;;;;4.00;2.33;;;;;;;16.06;38.17;92700.25;4814495;29;20111;-88
2022/04/27 11:29:38;;;;;;;4.70;2.55;;;;;;;16.44;39.05;92747.88;4799481;29;20444;-88
2022/04/27 11:32:07;;;;;;;4.63;2.63;;;;;;;15.93;38.43;92680.88;4806295;29;20119;-88
2022/04/27 11:37:59;;;;;;;6.18;2.53;;;;;;;15.76;41.58;92762.72;4805543;29;20077;-89
2022/04/27 11:40:28;;;;;;;5.85;2.80;;;;;;;16.13;40.64;92720.91;4783592;30;20032;-88
2022/04/27 11:42:58;;;;;;;9.60;2.70;;;;;;;16.23;40.75;92692.31;4792812;29;20051;-89
2022/04/27 11:45:26;;;;;;;6.88;2.58;;;;;;;16.28;39.96;92680.78;4810744;29;20077;-90
2022/04/27 11:48:12;;;;;;;6.00;2.90;;;;;;;16.27;39.90;92710.16;4805175;29;20045;-90
2022/04/27 11:50:58;;;;;;;4.97;2.85;;;;;;;16.41;37.18;92722.09;4795012;29;20049;-92
2022/04/27 11:53:24;;;;;;;5.43;2.28;;;;;;;16.18;41.27;92708.31;4805904;29;20050;-90
2022/04/27 11:55:51;;;;;;;6.75;3.38;;;;;;;15.99;41.49;92697.34;4808275;29;20050;-89
2022/04/27 11:58:38;;;;;;;6.20;3.30;;;;;;;16.71;41.35;92756.47;4792932;29;20041;-89
2022/04/27 12:01:08;;;;;;;9.50;3.28;;;;;;;16.61;40.45;92730.38;4793259;29;20051;-89
2022/04/27 12:03:43;;;;;;;6.70;3.53;;;;;;;16.43;42.01;92724.38;4778815;29;20051;-90
2022/04/27 12:06:28;;;;;;;6.30;3.05;;;;;;;16.58;42.84;92694.81;4794458;29;20035;-90
2022/04/27 12:09:32;;;;;;;7.13;3.50;;;;;;;16.51;42.53;92705.09;4791137;29;20047;-89
2022/04/27 12:12:26;;;;;;;8.73;4.22;;;;;;;16.43;42.25;92703.25;4766544;29;20049;-89
2022/04/27 12:15:09;;;;;;;;;;;;;;;;;;;;;
2022/04/27 12:18:14;;;;;;;7.60;3.72;;;;;;;16.73;40.96;92711.22;4794629;29;20058;-91
2022/04/27 12:20:57;;;;;;;9.63;4.28;;;;;;;16.71;43.03;92732.69;4805463;29;20047;-94
2022/04/27 12:23:48;;;;;;;7.78;3.80;;;;;;;16.09;42.79;92688.28;4827776;29;20080;-93
2022/04/27 12:26:22;;;;;;;6.28;3.80;;;;;;;16.74;42.28;92733.91;4815107;29;20027;-91
2022/04/27 12:29:00;;;;;;;7.97;4.03;;;;;;;16.40;42.72;92691.47;4816154;29;20031;-92
2022/04/27 12:31:32;;;;;;;7.57;3.90;;;;;;;16.65;43.35;92695.06;4801200;29;20054;-89
2022/04/27 12:37:29;;;;;;;10.77;4.35;;;;;;;16.18;41.53;92704.88;4830942;29;20029;-93
2022/04/27 12:39:49;;;;;;;10.82;5.30;;;;;;;16.61;42.66;92725.09;4832561;29;20041;-91
2022/04/27 12:42:18;;;;;;;6.70;4.30;;;;;;;16.77;43.55;92749.13;4823013;29;20039;-90
2022/04/27 12:44:49;;;;;;;8.60;4.97;;;;;;;16.67;43.02;92734.41;4798325;29;20115;-91
2022/04/27 12:47:19;;;;;;;9.07;4.75;;;;;;;16.61;41.95;92691.50;4814431;29;20050;-90
2022/04/27 12:52:50;;;;;;;10.18;4.55;;;;;;;17.02;42.04;92750.94;4818472;29;20177;-92
2022/04/27 12:55:20;;;;;;;8.38;4.35;;;;;;;16.96;42.16;92717.06;4808345;29;20100;-91
2022/04/27 12:58:01;;;;;;;;;;;;;;;;;;;;;
2022/04/27 13:00:48;;;;;;;6.35;3.40;;;;;;;16.39;43.34;92741.97;4810524;29;20125;-93
2022/04/27 13:03:25;;;;;;;10.70;4.25;;;;;;;16.51;41.86;92683.19;4803976;29;20145;-91